Time;durP1;ratioP1;P1;durP2;ratioP2;P2;SDS_P1;SDS_P2;PMS_P1;PMS_P2;Temp;Humidity;BMP_temperature;BMP_pressure;BME280_temperature;BME280_humidity;BME280_pressure;Samples;Min_cycle;Max_cycle;Signal;HPM_P1;HPM_P2
2022/02/16 00:00:51;;;;;;;46.90;14.95;;;;;;;-4.03;100.00;101926.80;1709279;82;21060;-94
2022/02/16 00:03:17;;;;;;;46.23;16.05;;;;;;;-4.05;100.00;101925.64;1708508;84;21136;-96
2022/02/16 00:05:42;;;;;;;48.15;15.90;;;;;;;-4.05;100.00;101924.80;1709330;83;20874;-94
2022/02/16 00:08:09;;;;;;;47.85;14.58;;;;;;;-4.05;100.00;101916.91;1710412;83;21072;-94
2022/02/16 00:10:36;;;;;;;42.35;14.10;;;;;;;-4.05;100.00;101919.54;1710018;84;21002;-93
2022/02/16 00:13:02;;;;;;;41.65;13.88;;;;;;;-4.06;100.00;101911.27;1709957;84;21486;-94
2022/02/16 00:15:28;;;;;;;44.38;14.83;;;;;;;-4.07;100.00;101906.50;1710030;83;21165;-94
2022/02/16 00:17:55;;;;;;;39.83;14.73;;;;;;;-4.08;100.00;101911.42;1709556;84;21451;-94
2022/02/16 00:20:21;;;;;;;37.63;13.98;;;;;;;-4.11;100.00;101902.47;1709940;83;20906;-94
2022/02/16 00:22:47;;;;;;;37.10;13.93;;;;;;;-4.10;100.00;101908.08;1709966;83;20985;-94
2022/02/16 00:25:13;;;;;;;37.80;13.93;;;;;;;-4.10;100.00;101906.77;1709566;84;20862;-94
2022/02/16 00:27:41;;;;;;;39.85;14.03;;;;;;;-4.12;100.00;101901.64;1709465;83;21599;-92
2022/02/16 00:30:08;;;;;;;37.67;14.23;;;;;;;-4.09;100.00;101905.78;1680198;85;21097;-93
2022/02/16 00:32:34;;;;;;;40.85;13.85;;;;;;;-4.12;100.00;101899.47;1680195;85;21525;-95
2022/02/16 00:35:01;;;;;;;39.70;13.75;;;;;;;-4.13;100.00;101897.81;1680520;85;21093;-94
2022/02/16 00:37:27;;;;;;;45.17;16.60;;;;;;;-4.14;100.00;101900.93;1680438;85;21131;-94
2022/02/16 00:39:53;;;;;;;47.23;14.85;;;;;;;-4.16;100.00;101896.27;1657191;85;21518;-94
2022/02/16 00:42:19;;;;;;;37.90;14.23;;;;;;;-4.15;100.00;101899.27;1680360;85;21057;-94
2022/02/16 00:44:45;;;;;;;40.88;14.98;;;;;;;-4.19;100.00;101899.17;1680423;85;21609;-94
2022/02/16 00:47:12;;;;;;;50.40;17.52;;;;;;;-4.21;100.00;101897.14;1680194;85;20895;-93
2022/02/16 00:49:38;;;;;;;44.58;16.25;;;;;;;-4.20;100.00;101901.95;1680422;85;21068;-94
2022/02/16 00:52:06;;;;;;;50.35;17.05;;;;;;;-4.20;100.00;101898.00;1680397;85;21172;-94
2022/02/16 00:54:33;;;;;;;49.30;17.90;;;;;;;-4.21;100.00;101892.36;1680702;85;21420;-94
2022/02/16 00:57:01;;;;;;;55.35;19.05;;;;;;;-4.20;100.00;101891.42;1679994;85;21091;-93
2022/02/16 00:59:31;;;;;;;60.12;18.37;;;;;;;-4.20;100.00;101886.98;1685153;84;21077;-95
2022/02/16 01:01:57;;;;;;;56.65;19.48;;;;;;;-4.16;100.00;101894.95;1686697;85;21039;-94
2022/02/16 01:04:24;;;;;;;57.75;19.62;;;;;;;-4.16;100.00;101892.81;1686676;84;21089;-93
2022/02/16 01:06:53;;;;;;;58.45;20.43;;;;;;;-4.19;100.00;101893.08;1686523;85;21030;-93
2022/02/16 01:09:19;;;;;;;58.05;19.85;;;;;;;-4.19;100.00;101897.02;1686777;85;21026;-93
2022/02/16 01:11:45;;;;;;;50.43;18.62;;;;;;;-4.18;100.00;101892.93;1687028;85;21525;-94
2022/02/16 01:14:11;;;;;;;53.63;19.20;;;;;;;-4.20;100.00;101890.94;1663725;85;21007;-94
2022/02/16 01:16:37;;;;;;;53.75;19.55;;;;;;;-4.30;100.00;101871.61;1686721;84;21613;-94
2022/02/16 01:19:05;;;;;;;54.80;18.23;;;;;;;-4.15;100.00;101894.02;1686772;85;20951;-95
2022/02/16 01:21:31;;;;;;;48.73;18.75;;;;;;;-4.14;100.00;101889.09;1686905;84;21466;-93
2022/02/16 01:23:57;;;;;;;53.85;20.08;;;;;;;-4.17;100.00;101885.89;1686872;85;20926;-95
2022/02/16 01:26:23;;;;;;;52.03;18.60;;;;;;;-4.20;100.00;101886.98;1670867;83;21022;-93
2022/02/16 01:28:50;;;;;;;51.42;18.75;;;;;;;-4.22;100.00;101894.16;1713716;83;21056;-94
2022/02/16 01:31:16;;;;;;;61.65;21.97;;;;;;;-4.23;100.00;101890.37;1713764;83;21002;-94
2022/02/16 01:33:42;;;;;;;56.98;20.43;;;;;;;-4.24;100.00;101887.36;1714048;83;21106;-94
2022/02/16 01:36:08;;;;;;;59.45;21.12;;;;;;;-4.25;100.00;101885.70;1713580;83;20892;-93
2022/02/16 01:38:35;;;;;;;54.03;20.90;;;;;;;-4.26;100.00;101890.14;1693666;83;20974;-94
2022/02/16 01:41:02;;;;;;;57.23;20.27;;;;;;;-4.26;100.00;101890.14;1713428;83;21154;-93
2022/02/16 01:43:29;;;;;;;62.13;21.27;;;;;;;-4.26;100.00;101883.56;1693763;83;21037;-93
2022/02/16 01:45:54;;;;;;;72.82;21.95;;;;;;;-4.25;100.00;101889.17;1713695;83;21050;-93
2022/02/16 01:48:21;;;;;;;69.62;22.80;;;;;;;-4.24;100.00;101892.14;1713629;83;21664;-94
2022/02/16 01:50:51;;;;;;;77.42;23.27;;;;;;;-4.22;100.00;101886.27;1714059;83;21109;-94
2022/02/16 01:53:17;;;;;;;86.25;27.02;;;;;;;-4.17;100.00;101887.20;1693106;83;21455;-94
2022/02/16 01:55:45;;;;;;;112.17;31.07;;;;;;;-4.05;100.00;101891.91;1713676;83;21550;-95
2022/02/16 01:58:11;;;;;;;137.68;37.58;;;;;;;-3.87;100.00;101894.25;1713448;83;21111;-94
2022/02/16 02:00:40;;;;;;;163.43;42.90;;;;;;;-3.67;100.00;101896.48;1688109;83;20878;-94
2022/02/16 02:03:05;;;;;;;155.72;42.78;;;;;;;-3.47;100.00;101896.02;1713741;83;21565;-95
2022/02/16 02:05:31;;;;;;;183.47;44.50;;;;;;;-3.25;100.00;101898.91;1714419;83;21132;-94
2022/02/16 02:07:57;;;;;;;185.40;42.83;;;;;;;-3.05;100.00;101893.17;1714281;83;21533;-95
2022/02/16 02:10:24;;;;;;;171.68;42.43;;;;;;;-2.87;100.00;101888.03;1714264;83;20977;-95
2022/02/16 02:12:53;;;;;;;169.72;42.40;;;;;;;-2.72;100.00;101889.76;1714299;83;21040;-94
2022/02/16 02:15:24;;;;;;;172.72;40.90;;;;;;;-2.59;100.00;101887.18;1714054;83;21025;-95
2022/02/16 02:17:51;;;;;;;186.28;44.30;;;;;;;-2.46;100.00;101889.50;1714509;83;21125;-95
2022/02/16 02:20:20;;;;;;;172.98;41.45;;;;;;;-2.31;100.00;101888.08;1714419;82;21040;-95
2022/02/16 02:22:47;;;;;;;175.10;40.40;;;;;;;-2.18;100.00;101896.16;1714161;83;21041;-94
2022/02/16 02:25:14;;;;;;;162.90;42.25;;;;;;;-2.07;100.00;101896.81;1714396;83;21040;-95
2022/02/16 02:27:41;;;;;;;177.20;43.40;;;;;;;-1.97;100.00;101898.59;1682845;85;21164;-95
2022/02/16 02:30:08;;;;;;;159.82;41.75;;;;;;;-1.88;100.00;101896.42;1682580;85;21083;-95
2022/02/16 02:32:34;;;;;;;168.35;38.98;;;;;;;-1.78;100.00;101897.19;1682788;85;21022;-95
2022/02/16 02:35:00;;;;;;;168.13;40.60;;;;;;;-1.68;100.00;101895.81;1683056;85;21049;-95
2022/02/16 02:37:26;;;;;;;164.65;40.03;;;;;;;-1.61;100.00;101888.48;1682625;85;21197;-96
2022/02/16 02:39:52;;;;;;;175.45;40.75;;;;;;;-1.55;100.00;101892.34;1682817;85;21141;-96
2022/02/16 02:42:18;;;;;;;143.87;38.78;;;;;;;-1.46;100.00;101893.27;1682840;85;21636;-95
2022/02/16 02:44:45;;;;;;;168.28;40.03;;;;;;;-1.40;100.00;101889.53;1682479;85;21056;-95
2022/02/16 02:47:11;;;;;;;173.45;41.48;;;;;;;-1.37;100.00;101889.23;1682938;85;21037;-95
2022/02/16 02:49:36;;;;;;;159.75;37.10;;;;;;;-1.31;100.00;101886.48;1682721;85;20950;-95
2022/02/16 02:52:03;;;;;;;162.03;39.45;;;;;;;-1.26;100.00;101884.73;1695410;83;21071;-96
2022/02/16 02:54:29;;;;;;;146.75;37.83;;;;;;;-1.20;100.00;101886.77;1714286;83;21102;-95
2022/02/16 02:56:55;;;;;;;142.05;35.68;;;;;;;-1.16;100.00;101887.63;1688095;83;21035;-96
2022/02/16 02:59:21;;;;;;;154.93;35.73;;;;;;;-1.10;100.00;101891.98;1707620;82;21403;-95
2022/02/16 03:01:48;;;;;;;139.25;36.03;;;;;;;-1.04;100.00;101884.27;1702023;84;20871;-95
2022/02/16 03:04:13;;;;;;;157.15;35.43;;;;;;;-0.99;100.00;101883.33;1702014;83;20918;-95
2022/02/16 03:06:39;;;;;;;142.65;34.73;;;;;;;-0.96;100.00;101887.48;1701921;83;21079;-95
2022/02/16 03:09:05;;;;;;;132.85;34.80;;;;;;;-0.96;100.00;101867.64;1674668;84;20906;-95
2022/02/16 03:11:31;;;;;;;129.85;31.75;;;;;;;-0.93;100.00;101875.27;1702191;83;20973;-95
2022/02/16 03:13:57;;;;;;;143.80;32.55;;;;;;;-0.88;100.00;101878.77;1674645;84;20949;-95
2022/02/16 03:16:26;;;;;;;112.85;29.42;;;;;;;-0.86;100.00;101882.09;1702082;84;21017;-94
2022/02/16 03:18:52;;;;;;;126.97;31.42;;;;;;;-0.86;100.00;101884.75;1702099;83;21135;-95
2022/02/16 03:21:18;;;;;;;116.85;28.98;;;;;;;-0.83;100.00;101887.91;1702046;84;20898;-96
2022/02/16 03:23:44;;;;;;;117.45;29.65;;;;;;;-0.79;100.00;101879.20;1701728;84;21017;-95
2022/02/16 03:26:11;;;;;;;114.90;31.07;;;;;;;-0.75;100.00;101887.16;1702149;84;20946;-95
2022/02/16 03:28:37;;;;;;;119.47;30.97;;;;;;;-0.72;100.00;101890.82;1702272;83;21001;-95
2022/02/16 03:31:03;;;;;;;137.88;31.37;;;;;;;-0.68;100.00;101882.91;1701618;84;21065;-96
2022/02/16 03:33:29;;;;;;;116.10;28.87;;;;;;;-0.75;100.00;101868.13;1702115;84;21044;-95
2022/02/16 03:35:55;;;;;;;106.77;26.67;;;;;;;-0.60;100.00;101890.09;1701985;84;20997;-95
2022/02/16 03:38:21;;;;;;;95.45;25.85;;;;;;;-0.60;100.00;101882.14;1702105;84;21060;-95
2022/02/16 03:40:47;;;;;;;103.45;27.10;;;;;;;-0.58;100.00;101881.50;1674314;84;20886;-95
2022/02/16 03:43:13;;;;;;;100.38;25.30;;;;;;;-0.69;100.00;101868.02;1702126;83;21181;-95
2022/02/16 03:45:38;;;;;;;90.28;25.52;;;;;;;-0.58;100.00;101884.98;1673878;84;20969;-95
2022/02/16 03:48:05;;;;;;;92.08;24.45;;;;;;;-0.59;100.00;101882.00;1702486;84;21703;-95
2022/02/16 03:50:31;;;;;;;81.60;23.07;;;;;;;-0.67;100.00;101871.84;1702086;83;21025;-96
2022/02/16 03:52:57;;;;;;;84.40;22.45;;;;;;;-0.58;100.00;101893.42;1701939;84;21640;-95
2022/02/16 03:55:23;;;;;;;77.97;22.67;;;;;;;-0.57;100.00;101889.28;1702167;84;21071;-95
2022/02/16 03:57:49;;;;;;;86.17;23.95;;;;;;;-0.56;100.00;101884.34;1702051;83;21048;-95
2022/02/16 04:00:15;;;;;;;85.32;23.30;;;;;;;-0.55;100.00;101883.34;1664350;83;21081;-96
2022/02/16 04:02:42;;;;;;;88.40;23.40;;;;;;;-0.56;100.00;101884.34;1689744;85;21033;-95
2022/02/16 04:05:09;;;;;;;91.22;24.27;;;;;;;-0.59;100.00;101872.73;1689815;85;21017;-95
2022/02/16 04:07:35;;;;;;;95.15;25.23;;;;;;;-0.57;100.00;101876.04;1662561;85;22726;-95
2022/02/16 04:10:01;;;;;;;95.90;24.80;;;;;;;-0.52;100.00;101880.88;1689987;85;20966;-96
2022/02/16 04:12:28;;;;;;;97.30;26.25;;;;;;;-0.52;100.00;101884.86;1689772;83;21105;-95
2022/02/16 04:14:54;;;;;;;101.42;26.37;;;;;;;-0.48;100.00;101886.20;1689713;84;20987;-96
2022/02/16 04:17:21;;;;;;;88.22;23.80;;;;;;;-0.41;100.00;101880.63;1689862;85;20990;-95
2022/02/16 04:19:47;;;;;;;102.82;26.62;;;;;;;-0.39;100.00;101881.78;1684867;85;21152;-95
2022/02/16 04:22:14;;;;;;;96.47;25.92;;;;;;;-0.39;100.00;101876.48;1662508;85;21641;-95
2022/02/16 04:24:42;;;;;;;114.47;27.17;;;;;;;-0.40;100.00;101873.52;1662095;85;21072;-96
2022/02/16 04:27:10;;;;;;;114.42;27.00;;;;;;;-0.40;100.00;101873.02;1662647;85;20986;-96
2022/02/16 04:29:36;;;;;;;123.65;30.02;;;;;;;-0.46;100.00;101877.61;1671474;84;21147;-96
2022/02/16 04:32:03;;;;;;;123.65;30.17;;;;;;;-0.44;100.00;101874.80;1671256;85;21534;-96
2022/02/16 04:34:30;;;;;;;130.97;29.07;;;;;;;-0.42;100.00;101874.98;1670728;85;21037;-96
2022/02/16 04:36:56;;;;;;;127.27;30.27;;;;;;;-0.41;100.00;101868.72;1671286;85;21029;-96
2022/02/16 04:39:22;;;;;;;117.17;30.12;;;;;;;-0.39;100.00;101872.52;1671636;85;21051;-96
2022/02/16 04:41:48;;;;;;;128.90;30.85;;;;;;;-0.39;100.00;101872.52;1671444;85;20854;-96
2022/02/16 04:44:14;;;;;;;121.02;29.60;;;;;;;-0.37;100.00;101883.80;1649114;85;21222;-96
2022/02/16 04:46:40;;;;;;;113.03;28.02;;;;;;;-0.34;100.00;101879.51;1671639;85;21570;-96
2022/02/16 04:49:06;;;;;;;131.52;29.37;;;;;;;-0.31;100.00;101883.17;1671380;85;21137;-96
2022/02/16 04:51:32;;;;;;;133.20;30.48;;;;;;;-0.30;100.00;101883.50;1671567;85;21366;-96
2022/02/16 04:53:58;;;;;;;120.50;30.02;;;;;;;-0.28;100.00;101872.26;1672675;85;21593;-96
2022/02/16 04:56:25;;;;;;;134.85;31.37;;;;;;;-0.29;100.00;101878.55;1671463;85;21131;-96
2022/02/16 04:58:51;;;;;;;133.20;31.45;;;;;;;-0.30;100.00;101880.34;1650637;83;21005;-95
2022/02/16 05:01:20;;;;;;;133.47;32.58;;;;;;;-0.27;100.00;101883.18;1688279;84;21112;-96
2022/02/16 05:03:44;;;;;;;146.28;34.40;;;;;;;-0.25;100.00;101883.87;1669602;83;21148;-96
2022/02/16 05:06:11;;;;;;;125.58;30.27;;;;;;;-0.26;100.00;101883.04;1692217;84;20998;-96
2022/02/16 05:08:37;;;;;;;122.25;29.25;;;;;;;-0.25;100.00;101877.24;1691725;84;21231;-95
2022/02/16 05:11:03;;;;;;;116.08;27.73;;;;;;;-0.21;100.00;101876.42;1692111;84;20902;-96
2022/02/16 05:13:31;;;;;;;113.65;27.73;;;;;;;-0.16;100.00;101876.30;1692249;84;21005;-96
2022/02/16 05:15:57;;;;;;;114.60;26.85;;;;;;;-0.11;100.00;101879.81;1640588;86;21054;-95
2022/02/16 05:18:23;;;;;;;108.27;25.05;;;;;;;-0.07;100.00;101879.82;1600565;89;20934;-96
2022/02/16 05:20:50;;;;;;;109.35;25.80;;;;;;;-0.08;100.00;101881.64;1640532;87;21092;-96
2022/02/16 05:23:16;;;;;;;106.43;26.75;;;;;;;-0.06;100.00;101881.47;1600039;89;21046;-96
2022/02/16 05:25:42;;;;;;;111.20;27.17;;;;;;;-0.06;100.00;101882.80;1616547;87;21069;-95
2022/02/16 05:28:11;;;;;;;106.27;27.10;;;;;;;-0.02;100.00;101890.78;1641314;87;21072;-96
2022/02/16 05:30:36;;;;;;;103.50;25.82;;;;;;;0.02;100.00;101892.12;1620182;87;21092;-96
2022/02/16 05:33:03;;;;;;;109.07;28.40;;;;;;;-0.02;100.00;101891.61;1641982;86;21091;-96
2022/02/16 05:35:29;;;;;;;108.95;27.27;;;;;;;0.02;100.00;101893.44;1638338;87;21018;-96
2022/02/16 05:37:55;;;;;;;101.85;24.72;;;;;;;0.06;100.00;101896.60;1641610;87;21044;-96
2022/02/16 05:40:21;;;;;;;98.35;24.72;;;;;;;0.03;100.00;101895.59;1619362;87;21181;-96
2022/02/16 05:42:48;;;;;;;106.03;27.52;;;;;;;0.03;100.00;101888.97;1618719;87;21018;-96
2022/02/16 05:45:14;;;;;;;83.70;23.22;;;;;;;0.08;100.00;101891.98;1642698;87;21120;-96
2022/02/16 05:47:40;;;;;;;105.40;26.57;;;;;;;0.11;100.00;101887.69;1642143;87;21482;-96
2022/02/16 06:09:43;;;;;;;103.90;26.35;;;;;;;-0.07;100.00;101919.06;1626520;83;22391;31
2022/02/16 06:12:32;;;;;;;104.40;26.85;;;;;;;0.02;100.00;101907.19;1548540;89;20955;31
2022/02/16 06:18:00;;;;;;;90.22;24.63;;;;;;;0.15;100.00;101910.25;1518293;89;21129;31
2022/02/16 06:24:21;;;;;;;241.33;68.67;;;;;;;0.27;100.00;101918.75;1544105;88;21083;-96
2022/02/16 06:27:36;;;;;;;;;;;;;;;;;;;;;
2022/02/16 06:33:15;;;;;;;111.32;30.40;;;;;;;0.41;100.00;101896.91;1511919;90;21088;-94
2022/02/16 06:35:41;;;;;;;98.12;29.27;;;;;;;0.44;100.00;101904.08;1523750;89;21203;-95
2022/02/16 06:38:10;;;;;;;86.15;24.30;;;;;;;0.52;100.00;101895.80;1506299;94;21129;-96
2022/02/16 06:40:37;;;;;;;89.07;25.50;;;;;;;0.54;100.00;101893.83;1531532;92;21089;-96
2022/02/16 06:43:03;;;;;;;89.90;24.87;;;;;;;0.50;100.00;101891.14;1547000;92;21066;-96
2022/02/16 06:45:30;;;;;;;83.60;24.00;;;;;;;0.50;100.00;101888.48;1504233;94;21144;-96
2022/02/16 06:47:59;;;;;;;89.32;24.00;;;;;;;0.50;100.00;101890.67;1545798;89;22177;-96
2022/02/16 06:50:25;;;;;;;87.75;24.65;;;;;;;0.56;100.00;101883.86;1545478;91;21567;-96
2022/02/16 06:52:51;;;;;;;92.97;25.08;;;;;;;0.59;100.00;101886.19;1540945;92;21256;-96
2022/02/16 06:55:18;;;;;;;89.22;24.05;;;;;;;0.54;100.00;101885.86;1483820;95;21152;-96
2022/02/16 06:57:44;;;;;;;79.03;22.95;;;;;;;0.53;100.00;101883.72;1521886;93;21037;-96
2022/02/16 07:00:11;;;;;;;80.87;24.05;;;;;;;0.53;100.00;101887.70;1534341;92;21124;-96
2022/02/16 07:02:46;;;;;;;69.40;22.45;;;;;;;0.48;100.00;101882.54;1512786;93;21579;-96
2022/02/16 07:05:12;;;;;;;69.77;21.37;;;;;;;0.45;100.00;101880.53;1510262;95;22104;-95
2022/02/16 07:07:40;;;;;;;65.45;20.05;;;;;;;0.46;100.00;101876.05;1537788;93;21113;-96
2022/02/16 07:10:10;;;;;;;65.92;20.95;;;;;;;0.48;100.00;101878.56;1538610;90;21393;-96
2022/02/16 07:12:39;;;;;;;64.40;20.37;;;;;;;0.47;100.00;101872.40;1565308;91;21075;-95
2022/02/16 07:15:13;;;;;;;66.90;19.00;;;;;;;0.46;100.00;101866.77;1590206;90;21130;-96
2022/02/16 07:17:42;;;;;;;61.92;18.45;;;;;;;0.44;100.00;101870.93;1516701;93;23124;-91
2022/02/16 07:20:14;;;;;;;61.42;19.00;;;;;;;0.48;100.00;101874.08;1551630;90;21267;-93
2022/02/16 07:22:48;;;;;;;56.88;18.00;;;;;;;0.53;100.00;101873.11;1574301;87;33451;-93
2022/02/16 07:25:16;;;;;;;60.92;19.67;;;;;;;0.54;100.00;101878.73;1588052;90;21052;-92
2022/02/16 07:27:43;;;;;;;65.03;18.82;;;;;;;0.58;100.00;101884.54;1619079;88;21077;-93
2022/02/16 07:30:12;;;;;;;64.00;20.27;;;;;;;0.61;100.00;101882.39;1541755;90;21193;-92
2022/02/16 07:32:41;;;;;;;49.50;16.55;;;;;;;0.58;100.00;101880.06;1567992;90;21671;-92
2022/02/16 07:35:11;;;;;;;55.67;17.37;;;;;;;0.57;100.00;101875.76;1537982;91;21107;-93
2022/02/16 07:37:38;;;;;;;57.33;17.45;;;;;;;0.55;100.00;101864.47;1525221;93;21021;-94
2022/02/16 07:40:06;;;;;;;55.98;18.62;;;;;;;0.61;100.00;101855.03;1517308;94;21154;-94
2022/02/16 07:42:33;;;;;;;58.08;18.15;;;;;;;0.75;100.00;101858.38;1511082;95;21145;-93
2022/02/16 07:44:59;;;;;;;54.15;17.02;;;;;;;0.97;100.00;101869.34;1487325;95;21705;-93
2022/02/16 07:47:25;;;;;;;56.48;16.70;;;;;;;1.03;100.00;101855.41;1510744;95;21134;-91
2022/02/16 07:49:51;;;;;;;47.95;15.48;;;;;;;1.08;100.00;101856.57;1487259;95;21257;-93
2022/02/16 07:52:17;;;;;;;52.58;15.95;;;;;;;1.13;100.00;101858.74;1510312;93;20993;-91
2022/02/16 07:54:44;;;;;;;46.90;14.98;;;;;;;1.17;100.00;101860.56;1487316;95;21080;-92
2022/02/16 07:57:10;;;;;;;55.52;16.73;;;;;;;1.18;100.00;101852.45;1510414;93;21144;-92
2022/02/16 07:59:36;;;;;;;56.08;16.42;;;;;;;1.20;100.00;101853.59;1486926;95;21142;-91
2022/02/16 08:02:05;;;;;;;44.90;15.45;;;;;;;1.30;100.00;101844.97;1541093;89;20985;-92
2022/02/16 08:04:32;;;;;;;54.75;16.70;;;;;;;1.38;100.00;101844.94;1574438;91;21198;-91
2022/02/16 08:07:00;;;;;;;54.13;17.25;;;;;;;1.40;100.00;101852.75;1581557;90;21708;-91
2022/02/16 08:09:26;;;;;;;49.38;16.50;;;;;;;1.41;100.00;101847.75;1583770;90;21560;-91
2022/02/16 08:11:52;;;;;;;49.35;16.05;;;;;;;1.44;100.00;101844.77;1583856;90;21469;-91
2022/02/16 08:14:19;;;;;;;49.23;15.88;;;;;;;1.39;100.00;101848.45;1584130;90;20990;-91
2022/02/16 08:16:46;;;;;;;48.17;16.27;;;;;;;1.34;100.00;101836.48;1583855;90;21564;-91
2022/02/16 08:19:12;;;;;;;54.95;15.40;;;;;;;1.31;100.00;101829.36;1583899;90;21318;-93
2022/02/16 08:21:57;;;;;;;51.33;15.83;;;;;;;1.27;100.00;101824.06;1583782;90;21516;-94
2022/02/16 08:24:27;;;;;;;49.90;16.67;;;;;;;1.24;100.00;101820.42;1540171;93;21031;-95
2022/02/16 08:26:54;;;;;;;52.65;16.07;;;;;;;1.23;100.00;101816.91;1540467;93;21571;-96
2022/02/16 08:29:23;;;;;;;52.27;16.17;;;;;;;1.27;100.00;101813.44;1540841;93;21145;-96
2022/02/16 08:31:49;;;;;;;49.50;16.17;;;;;;;1.35;100.00;101810.75;1551519;91;21154;-94
2022/02/16 08:34:16;;;;;;;49.83;15.83;;;;;;;1.41;100.00;101811.40;1566071;91;21039;-96
2022/02/16 08:36:42;;;;;;;52.08;17.05;;;;;;;1.44;100.00;101808.91;1562319;90;21056;-96
2022/02/16 08:39:08;;;;;;;49.05;16.10;;;;;;;1.56;100.00;101808.40;1553194;92;21044;-96
2022/02/16 08:41:35;;;;;;;44.60;15.35;;;;;;;1.68;100.00;101802.72;1552311;92;21698;-96
2022/02/16 08:44:01;;;;;;;46.70;16.67;;;;;;;1.76;100.00;101804.83;1552490;92;21200;-96
2022/02/16 08:46:27;;;;;;;51.15;16.32;;;;;;;1.86;100.00;101801.16;1551930;92;21185;-94
2022/02/16 08:48:53;;;;;;;47.90;17.12;;;;;;;1.92;100.00;101801.30;1551812;92;20995;-96
2022/02/16 08:51:20;;;;;;;44.73;16.05;;;;;;;1.97;100.00;101795.44;1551804;92;21130;-94
2022/02/16 08:53:46;;;;;;;48.28;15.38;;;;;;;2.01;100.00;101798.09;1551619;92;21554;-94
2022/02/16 08:56:12;;;;;;;53.23;16.42;;;;;;;2.09;100.00;101796.73;1551908;90;21176;-95
2022/02/16 08:58:42;;;;;;;50.80;16.73;;;;;;;2.12;100.00;101799.52;1567917;90;21093;-96
2022/02/16 09:01:08;;;;;;;49.00;15.63;;;;;;;2.18;100.00;101798.34;1552413;90;21074;-96
2022/02/16 09:03:34;;;;;;;53.48;17.50;;;;;;;2.21;100.00;101798.50;1551836;91;21056;-96
2022/02/16 09:06:00;;;;;;;54.83;17.40;;;;;;;2.22;100.00;101800.97;1551568;91;21092;-96
2022/02/16 09:08:26;;;;;;;55.48;18.23;;;;;;;2.23;100.00;101799.14;1551919;92;21243;-96
2022/02/16 09:10:53;;;;;;;57.33;17.05;;;;;;;2.25;100.00;101797.96;1551792;90;21074;-96
2022/02/16 09:13:20;;;;;;;49.98;16.95;;;;;;;2.27;100.00;101791.98;1551579;92;21122;-96
2022/02/16 09:15:46;;;;;;;52.93;17.37;;;;;;;2.27;100.00;101791.16;1551635;92;21135;-96
2022/02/16 09:23:54;;;;;;;48.65;16.55;;;;;;;2.53;100.00;101779.33;1461035;95;21590;-95
2022/02/16 09:26:20;;;;;;;44.15;15.35;;;;;;;2.62;100.00;101779.62;1461928;96;21086;-96
2022/02/16 09:28:47;;;;;;;50.52;16.07;;;;;;;2.66;100.00;101782.23;1483978;95;21155;-95
2022/02/16 09:31:13;;;;;;;45.43;15.58;;;;;;;2.73;100.00;101776.00;1498279;95;21154;-95
2022/02/16 09:33:39;;;;;;;42.08;13.78;;;;;;;2.86;100.00;101766.61;1476621;96;22001;-94
2022/02/16 09:36:06;;;;;;;43.92;13.78;;;;;;;3.03;100.00;101757.47;1479539;95;21142;-95
2022/02/16 09:38:32;;;;;;;45.90;14.60;;;;;;;3.19;100.00;101753.81;1463325;96;21105;-94
2022/02/16 09:40:58;;;;;;;39.15;13.93;;;;;;;3.27;100.00;101754.24;1475328;97;21855;-95
2022/02/16 09:43:24;;;;;;;36.80;13.30;;;;;;;3.26;100.00;101754.72;1477383;97;21489;-95
2022/02/16 09:45:55;;;;;;;33.18;11.65;;;;;;;3.22;100.00;101755.28;1477524;97;21404;-95
2022/02/16 09:48:24;;;;;;;35.33;12.18;;;;;;;3.18;100.00;101750.84;1432730;99;21096;-95
2022/02/16 09:50:52;;;;;;;32.30;11.83;;;;;;;3.22;100.00;101751.29;1465195;96;21628;-95
2022/02/16 09:53:18;;;;;;;32.85;11.97;;;;;;;3.26;100.00;101754.72;1465400;96;21648;-94
2022/02/16 09:55:44;;;;;;;33.40;11.68;;;;;;;3.29;100.00;101748.20;1463651;97;21421;-95
2022/02/16 09:58:11;;;;;;;35.10;12.05;;;;;;;3.26;100.00;101743.24;1510438;91;21150;-95
2022/02/16 10:00:37;;;;;;;27.95;11.43;;;;;;;3.28;100.00;101735.91;1605945;87;21050;-95
2022/02/16 10:03:12;;;;;;;34.23;12.13;;;;;;;3.28;100.00;101731.40;1635306;87;21088;-95
2022/02/16 10:05:38;;;;;;;33.75;12.03;;;;;;;3.29;100.00;101724.23;1605863;89;21220;-94
2022/02/16 10:08:06;;;;;;;27.10;10.80;;;;;;;3.25;100.00;101725.11;1638774;87;21037;-94
2022/02/16 10:10:32;;;;;;;31.62;11.40;;;;;;;3.32;100.00;101709.20;1638445;87;21519;-94
2022/02/16 10:13:02;;;;;;;27.95;10.35;;;;;;;3.39;100.00;101714.14;1637711;87;21070;-94
2022/02/16 10:15:39;;;;;;;32.23;11.05;;;;;;;3.34;100.00;101704.53;1638237;87;21073;-94
2022/02/16 10:18:10;;;;;;;28.27;10.58;;;;;;;3.33;100.00;101701.56;1619018;87;21104;-95
2022/02/16 10:20:37;;;;;;;29.18;10.15;;;;;;;3.28;100.00;101694.10;1612355;89;20990;-94
2022/02/16 10:23:04;;;;;;;29.40;10.85;;;;;;;3.26;100.00;101701.45;1612189;89;21124;-96
2022/02/16 10:25:33;;;;;;;29.27;10.75;;;;;;;3.33;100.00;101696.23;1674869;85;21096;-96
2022/02/16 10:28:19;;;;;;;26.30;9.70;;;;;;;3.44;100.00;101686.41;1655972;86;21053;-94
2022/02/16 10:31:09;;;;;;;25.40;9.75;;;;;;;3.49;100.00;101688.02;1665337;86;21093;-95
2022/02/16 10:33:40;;;;;;;27.05;9.88;;;;;;;3.67;100.00;101683.63;1645402;86;20998;-96
2022/02/16 10:36:19;;;;;;;21.10;9.28;;;;;;;3.85;100.00;101685.39;1665100;86;21627;-95
2022/02/16 10:38:58;;;;;;;25.92;9.35;;;;;;;4.12;100.00;101675.48;1668258;84;21060;-94
2022/02/16 10:41:31;;;;;;;20.82;8.83;;;;;;;4.25;100.00;101676.45;1674429;85;21041;-94
2022/02/16 10:43:59;;;;;;;20.08;8.23;;;;;;;4.32;100.00;101673.83;1701485;84;20990;-92
2022/02/16 10:46:31;;;;;;;20.88;8.45;;;;;;;4.45;100.00;101673.96;1700723;84;21112;-95
2022/02/16 10:49:18;;;;;;;16.95;7.62;;;;;;;4.54;100.00;101668.80;1701662;83;21159;-93
2022/02/16 10:51:46;;;;;;;17.85;8.05;;;;;;;4.63;100.00;101659.32;1713785;83;21011;-91
2022/02/16 10:54:19;;;;;;;19.67;8.60;;;;;;;4.80;100.00;101651.33;1722594;83;20995;-91
2022/02/16 10:56:49;;;;;;;20.55;8.43;;;;;;;4.92;100.00;101643.09;1717705;83;21136;-93
2022/02/16 10:59:16;;;;;;;24.05;8.18;;;;;;;5.08;100.00;101649.12;1661013;85;21005;-93
2022/02/16 11:01:44;;;;;;;19.07;8.90;;;;;;;5.18;100.00;101645.59;1714466;83;21075;-93
2022/02/16 11:04:13;;;;;;;19.05;8.03;;;;;;;5.23;100.00;101647.99;1720012;83;21030;-90
2022/02/16 11:06:43;;;;;;;23.62;8.55;;;;;;;5.29;100.00;101639.66;1718532;83;20998;-93
2022/02/16 11:09:20;;;;;;;20.52;8.30;;;;;;;5.34;100.00;101631.88;1659905;86;21089;-93
2022/02/16 11:11:51;;;;;;;20.65;8.05;;;;;;;5.42;100.00;101633.57;1583284;90;21736;-93
2022/02/16 11:14:21;;;;;;;20.10;8.03;;;;;;;5.59;100.00;101635.35;1627160;87;21568;-93
2022/02/16 11:16:49;;;;;;;21.25;8.38;;;;;;;5.80;100.00;101633.89;1617707;88;21157;-94
2022/02/16 11:19:28;;;;;;;25.72;8.60;;;;;;;5.98;100.00;101631.18;1618255;88;21181;-93
2022/02/16 11:22:18;;;;;;;23.83;9.15;;;;;;;6.17;100.00;101625.01;1618067;88;21027;-92
2022/02/16 11:24:51;;;;;;;30.52;10.55;;;;;;;6.36;100.00;101621.52;1617850;88;21772;-93
2022/02/16 11:27:29;;;;;;;23.85;9.33;;;;;;;6.55;100.00;101612.34;1627954;87;21238;-93
2022/02/16 11:30:00;;;;;;;25.25;8.28;;;;;;;6.77;100.00;101610.26;1627950;88;20974;-94
2022/02/16 11:32:41;;;;;;;26.27;8.43;;;;;;;6.96;100.00;101604.53;1559440;92;21241;-91
2022/02/16 11:35:19;;;;;;;29.32;11.00;;;;;;;7.11;100.00;101602.41;1580508;90;21043;-92
2022/02/16 11:37:49;;;;;;;27.95;10.85;;;;;;;7.30;100.00;101601.23;1584160;88;21135;-91
2022/02/16 11:40:18;;;;;;;32.90;12.47;;;;;;;7.53;100.00;101602.87;1610556;89;22096;-91
2022/02/16 11:42:52;;;;;;;31.10;11.12;;;;;;;7.71;100.00;101596.26;1610292;89;21149;-91